createdAt,value
2023-02-02T00:29:52.434Z,3.08
2023-02-02T00:59:52.792Z,2.6
2023-02-02T01:29:52.246Z,2.29
2023-02-02T01:59:53.384Z,1.67
2023-02-02T02:29:52.440Z,1.6
2023-02-02T02:59:52.340Z,1.29
2023-02-02T03:29:55.395Z,0.88
2023-02-02T03:59:52.886Z,0.66
2023-02-02T04:59:52.510Z,0.69
2023-02-02T05:29:52.753Z,1.21
2023-02-02T05:59:52.157Z,1.24
2023-02-02T06:29:53.175Z,1.32
2023-02-02T06:59:52.203Z,1.27
2023-02-02T07:29:52.307Z,1.38
2023-02-02T07:59:52.528Z,1.62
2023-02-02T08:29:52.422Z,2.36
2023-02-02T08:59:52.340Z,3.58
2023-02-02T09:29:51.932Z,4.77
2023-02-02T09:59:51.683Z,7.2
2023-02-02T10:29:52.297Z,9.05
2023-02-02T10:59:52.298Z,12.76
2023-02-02T11:29:52.106Z,14.56
2023-02-02T11:59:52.276Z,11.27
2023-02-02T12:29:51.747Z,9.4
2023-02-02T12:59:51.741Z,12.44
2023-02-02T13:29:51.499Z,14.45
2023-02-02T13:59:52.137Z,16.18
2023-02-02T14:29:51.733Z,10.86
2023-02-02T14:59:51.678Z,9.38
2023-02-02T15:29:51.819Z,8.53
2023-02-02T15:59:51.710Z,7.95
2023-02-02T16:30:01.233Z,6.99
2023-02-02T16:59:52.138Z,6.18
2023-02-02T17:29:51.018Z,5.32
2023-02-02T17:59:51.585Z,4.53
2023-02-02T18:29:51.919Z,3.68
2023-02-02T18:59:52.744Z,2.78
2023-02-02T19:29:51.025Z,2.03
2023-02-02T19:59:51.268Z,1.5
2023-02-02T20:29:51.376Z,0.88
2023-02-02T20:59:51.143Z,0.44
2023-02-02T21:59:51.010Z,-0.05
2023-02-02T22:29:50.823Z,-0.7
2023-02-02T22:59:52.656Z,-0.93
2023-02-02T23:29:51.017Z,-1.19
2023-02-02T23:59:57.397Z,-1.37
